THA678 VRMM-VTBS
Flight info
| Callsign | THA678 |
|---|---|
| Flight time | N/A |
| Altitude | 39000 |
| Route | DOPDO2A DOPDO G465 KAT P762 DWI L877 MIGAR L524 IBETO WILLA1C |
| Aircraft | A359/H-SDE2E3GHIJ3J4J5LM1ORWXY/LB1D1 |
Departure
| Time | 2026-05-04 14:20 |
|---|---|
| Airport | Velana International Airport (VRMM) |
Arrival
| Time | N/A |
|---|---|
| Airport | Suvarnabhumi Airport (VTBS) |
| Time | Latitude | Longitude | Altitude | Speed | Heading |
|---|---|---|---|---|---|
| 2026-05-04 14:00 | 4.19071 | 73.52806 | 15 ft | 0 kts | 269° |
| 2026-05-04 14:12 | 4.19071 | 73.52807 | 20 ft | 1 kts | 268° |
| 2026-05-04 14:13 | 4.19069 | 73.52823 | 24 ft | 2 kts | 293° |
| 2026-05-04 14:13 | 4.19060 | 73.52836 | 24 ft | 2 kts | 321° |
| 2026-05-04 14:13 | 4.19046 | 73.52845 | 25 ft | 2 kts | 340° |
| 2026-05-04 14:13 | 4.19030 | 73.52849 | 24 ft | 2 kts | 350° |
| 2026-05-04 14:14 | 4.19014 | 73.52851 | 24 ft | 2 kts | 356° |
| 2026-05-04 14:14 | 4.19008 | 73.52851 | 23 ft | 0 kts | 358° |
| 2026-05-04 14:17 | 4.19040 | 73.52884 | 20 ft | 7 kts | 86° |
| 2026-05-04 14:17 | 4.18998 | 73.52920 | 20 ft | 10 kts | 176° |
| 2026-05-04 14:17 | 4.18727 | 73.52924 | 20 ft | 28 kts | 179° |
| 2026-05-04 14:18 | 4.18505 | 73.52928 | 20 ft | 35 kts | 179° |
| 2026-05-04 14:18 | 4.18192 | 73.52948 | 21 ft | 0 kts | 131° |
| 2026-05-04 14:19 | 4.18228 | 73.53106 | 18 ft | 12 kts | 19° |
| 2026-05-04 14:19 | 4.18258 | 73.53107 | 18 ft | 2 kts | 357° |
| 2026-05-04 14:19 | 4.18500 | 73.53105 | 21 ft | 73 kts | 0° |
| 2026-05-04 14:19 | 4.19251 | 73.53105 | 21 ft | 141 kts | 0° |
| 2026-05-04 14:20 | 4.19990 | 73.53106 | 85 ft | 174 kts | 0° |
| 2026-05-04 14:20 | 4.21199 | 73.53080 | 810 ft | 172 kts | 355° |
| 2026-05-04 14:20 | 4.22394 | 73.53088 | 1530 ft | 180 kts | 358° |
| 2026-05-04 14:21 | 4.25304 | 73.53162 | 2310 ft | 231 kts | 359° |
| 2026-05-04 14:21 | 4.26956 | 73.53197 | 2885 ft | 246 kts | 358° |
| 2026-05-04 14:21 | 4.28737 | 73.53309 | 3427 ft | 266 kts | 8° |
| 2026-05-04 14:21 | 4.30521 | 73.53906 | 4157 ft | 276 kts | 27° |
| 2026-05-04 14:22 | 4.31940 | 73.55217 | 4945 ft | 283 kts | 58° |
| 2026-05-04 14:22 | 4.32693 | 73.57040 | 5783 ft | 285 kts | 73° |
| 2026-05-04 14:22 | 4.33258 | 73.58957 | 6601 ft | 289 kts | 74° |
| 2026-05-04 14:22 | 4.33819 | 73.60906 | 7391 ft | 293 kts | 74° |
| 2026-05-04 14:23 | 4.34974 | 73.64836 | 9210 ft | 295 kts | 73° |
| 2026-05-04 14:23 | 4.35564 | 73.66818 | 10139 ft | 297 kts | 72° |
| 2026-05-04 14:23 | 4.36162 | 73.68818 | 10884 ft | 303 kts | 72° |
| 2026-05-04 14:24 | 4.36773 | 73.70860 | 11690 ft | 308 kts | 72° |
| 2026-05-04 14:24 | 4.37398 | 73.72947 | 12305 ft | 321 kts | 72° |
| 2026-05-04 14:24 | 4.38061 | 73.75159 | 12648 ft | 341 kts | 72° |
| 2026-05-04 14:24 | 4.38762 | 73.77499 | 12964 ft | 359 kts | 72° |
| 2026-05-04 14:25 | 4.39496 | 73.79948 | 13330 ft | 373 kts | 72° |
| 2026-05-04 14:25 | 4.40995 | 73.84961 | 14410 ft | 383 kts | 72° |
| 2026-05-04 14:25 | 4.41766 | 73.87538 | 14908 ft | 389 kts | 72° |
| 2026-05-04 14:26 | 4.42547 | 73.90147 | 15452 ft | 393 kts | 72° |
| 2026-05-04 14:26 | 4.43337 | 73.92786 | 15996 ft | 397 kts | 72° |
| 2026-05-04 14:26 | 4.44132 | 73.95446 | 16534 ft | 401 kts | 72° |
| 2026-05-04 14:26 | 4.44936 | 73.98135 | 17069 ft | 405 kts | 72° |
| 2026-05-04 14:27 | 4.45749 | 74.00854 | 17595 ft | 409 kts | 73° |
| 2026-05-04 14:27 | 4.46570 | 74.03598 | 18124 ft | 413 kts | 73° |
| 2026-05-04 14:27 | 4.47400 | 74.06374 | 18567 ft | 418 kts | 73° |
| 2026-05-04 14:27 | 4.48235 | 74.09169 | 19064 ft | 420 kts | 73° |
| 2026-05-04 14:28 | 4.49078 | 74.11990 | 19542 ft | 423 kts | 73° |
| 2026-05-04 14:28 | 4.49922 | 74.14816 | 20035 ft | 425 kts | 73° |
| 2026-05-04 14:28 | 4.50774 | 74.17669 | 20512 ft | 428 kts | 73° |
| 2026-05-04 14:28 | 4.51632 | 74.20542 | 21016 ft | 431 kts | 73° |
| 2026-05-04 14:29 | 4.53352 | 74.26300 | 21974 ft | 437 kts | 73° |
| 2026-05-04 14:29 | 4.55464 | 74.32052 | 22914 ft | 443 kts | 66° |
| 2026-05-04 14:30 | 4.56729 | 74.34881 | 23389 ft | 446 kts | 65° |
| 2026-05-04 14:30 | 4.58044 | 74.37701 | 23792 ft | 448 kts | 65° |
| 2026-05-04 14:30 | 4.60716 | 74.43380 | 24608 ft | 452 kts | 65° |
| 2026-05-04 14:31 | 4.62051 | 74.46248 | 25055 ft | 454 kts | 65° |
| 2026-05-04 14:31 | 4.64711 | 74.52025 | 25987 ft | 459 kts | 65° |
| 2026-05-04 14:32 | 4.67385 | 74.57873 | 26967 ft | 464 kts | 65° |
| 2026-05-04 14:32 | 4.68732 | 74.60822 | 27456 ft | 467 kts | 65° |
| 2026-05-04 14:32 | 4.70089 | 74.63793 | 27953 ft | 470 kts | 65° |
| 2026-05-04 14:32 | 4.71453 | 74.66779 | 28437 ft | 472 kts | 65° |
| 2026-05-04 14:33 | 4.72825 | 74.69781 | 28927 ft | 475 kts | 65° |
| 2026-05-04 14:33 | 4.74208 | 74.72807 | 29385 ft | 478 kts | 65° |
| 2026-05-04 14:33 | 4.75596 | 74.75844 | 29814 ft | 481 kts | 65° |
| 2026-05-04 14:33 | 4.76977 | 74.78866 | 30193 ft | 484 kts | 65° |
| 2026-05-04 14:34 | 4.78400 | 74.81979 | 30544 ft | 487 kts | 65° |
| 2026-05-04 14:34 | 4.79798 | 74.85040 | 30915 ft | 489 kts | 65° |
| 2026-05-04 14:34 | 4.81216 | 74.88147 | 31250 ft | 492 kts | 65° |
| 2026-05-04 14:34 | 4.82643 | 74.91272 | 31606 ft | 494 kts | 65° |
| 2026-05-04 14:35 | 4.84080 | 74.94419 | 31942 ft | 496 kts | 65° |
| 2026-05-04 14:35 | 4.85519 | 74.97572 | 32241 ft | 499 kts | 65° |
| 2026-05-04 14:35 | 4.86965 | 75.00739 | 32566 ft | 501 kts | 65° |
| 2026-05-04 14:35 | 4.88416 | 75.03918 | 32870 ft | 503 kts | 65° |
| 2026-05-04 14:36 | 4.89873 | 75.07110 | 33283 ft | 502 kts | 65° |
| 2026-05-04 14:36 | 4.91322 | 75.10286 | 33769 ft | 500 kts | 65° |
| 2026-05-04 14:36 | 4.92765 | 75.13450 | 34159 ft | 499 kts | 65° |
| 2026-05-04 14:36 | 4.94208 | 75.16613 | 34525 ft | 498 kts | 66° |
| 2026-05-04 14:37 | 4.95648 | 75.19769 | 34889 ft | 497 kts | 66° |
| 2026-05-04 14:37 | 4.97085 | 75.22920 | 35268 ft | 495 kts | 66° |
| 2026-05-04 14:37 | 4.98513 | 75.26053 | 35673 ft | 494 kts | 66° |
| 2026-05-04 14:37 | 4.99942 | 75.29187 | 36039 ft | 493 kts | 66° |
| 2026-05-04 14:38 | 5.01360 | 75.32301 | 36417 ft | 491 kts | 66° |
| 2026-05-04 14:38 | 5.02782 | 75.35419 | 36770 ft | 490 kts | 66° |
| 2026-05-04 14:38 | 5.04196 | 75.38523 | 37111 ft | 490 kts | 66° |
| 2026-05-04 14:38 | 5.05610 | 75.41626 | 37452 ft | 489 kts | 66° |
| 2026-05-04 14:39 | 5.07022 | 75.44727 | 37812 ft | 488 kts | 66° |
| 2026-05-04 14:39 | 5.08432 | 75.47820 | 38137 ft | 487 kts | 66° |
| 2026-05-04 14:39 | 5.09838 | 75.50910 | 38456 ft | 486 kts | 66° |
| 2026-05-04 14:40 | 5.12649 | 75.57083 | 38886 ft | 487 kts | 66° |
| 2026-05-04 14:40 | 5.14051 | 75.60161 | 38905 ft | 486 kts | 66° |
| 2026-05-04 14:40 | 5.16856 | 75.66327 | 38903 ft | 485 kts | 66° |
| 2026-05-04 14:41 | 5.19658 | 75.72488 | 38908 ft | 486 kts | 66° |
| 2026-05-04 14:42 | 5.25255 | 75.84798 | 38900 ft | 487 kts | 66° |
| 2026-05-04 14:42 | 5.28063 | 75.90979 | 38898 ft | 487 kts | 66° |
| 2026-05-04 14:43 | 5.30873 | 75.97161 | 38907 ft | 487 kts | 66° |
| 2026-05-04 14:43 | 5.33686 | 76.03353 | 38907 ft | 488 kts | 66° |
| 2026-05-04 14:44 | 5.36499 | 76.09558 | 38909 ft | 488 kts | 66° |
| 2026-05-04 14:44 | 5.39315 | 76.15758 | 38902 ft | 489 kts | 67° |
| 2026-05-04 14:45 | 5.42122 | 76.21943 | 38899 ft | 489 kts | 67° |
| 2026-05-04 14:45 | 5.44942 | 76.28159 | 38901 ft | 489 kts | 67° |
| 2026-05-04 14:46 | 5.47769 | 76.34396 | 38906 ft | 489 kts | 67° |
| 2026-05-04 14:46 | 5.50582 | 76.40604 | 38910 ft | 488 kts | 67° |
| 2026-05-04 14:47 | 5.53388 | 76.46799 | 38902 ft | 487 kts | 67° |
| 2026-05-04 14:47 | 5.56193 | 76.52990 | 38905 ft | 487 kts | 67° |
| 2026-05-04 14:48 | 5.58973 | 76.59131 | 38901 ft | 486 kts | 67° |
| 2026-05-04 14:48 | 5.61767 | 76.65305 | 38905 ft | 485 kts | 67° |
| 2026-05-04 14:49 | 5.64557 | 76.71471 | 38906 ft | 485 kts | 67° |
| 2026-05-04 14:49 | 5.67345 | 76.77637 | 38906 ft | 485 kts | 67° |
| 2026-05-04 14:50 | 5.70131 | 76.83798 | 38906 ft | 485 kts | 67° |
| 2026-05-04 14:50 | 5.72920 | 76.89967 | 38905 ft | 485 kts | 67° |
| 2026-05-04 14:51 | 5.75711 | 76.96142 | 38906 ft | 485 kts | 67° |
| 2026-05-04 14:51 | 5.78497 | 77.02311 | 38906 ft | 485 kts | 67° |
| 2026-05-04 14:52 | 5.81284 | 77.08483 | 38904 ft | 485 kts | 67° |
| 2026-05-04 14:52 | 5.84071 | 77.14658 | 38905 ft | 485 kts | 67° |
| 2026-05-04 14:53 | 5.86841 | 77.20796 | 38902 ft | 485 kts | 67° |
| 2026-05-04 14:53 | 5.89624 | 77.26965 | 38902 ft | 485 kts | 67° |
| 2026-05-04 14:54 | 5.92405 | 77.33131 | 38905 ft | 484 kts | 67° |
| 2026-05-04 14:54 | 5.95182 | 77.39291 | 38908 ft | 484 kts | 67° |
| 2026-05-04 14:55 | 5.97958 | 77.45451 | 38904 ft | 484 kts | 67° |
| 2026-05-04 14:55 | 6.00738 | 77.51611 | 38906 ft | 484 kts | 66° |
| 2026-05-04 14:56 | 6.03748 | 77.57654 | 38905 ft | 483 kts | 64° |
| 2026-05-04 14:56 | 6.06866 | 77.63635 | 38903 ft | 483 kts | 64° |
| 2026-05-04 14:57 | 6.09948 | 77.69625 | 38905 ft | 482 kts | 64° |
| 2026-05-04 14:57 | 6.12998 | 77.75630 | 38906 ft | 481 kts | 64° |
| 2026-05-04 14:58 | 6.16029 | 77.81619 | 38904 ft | 480 kts | 64° |
| 2026-05-04 14:58 | 6.19053 | 77.87600 | 38903 ft | 480 kts | 64° |
| 2026-05-04 14:59 | 6.22077 | 77.93583 | 38908 ft | 480 kts | 64° |
| 2026-05-04 15:00 | 6.26618 | 78.02558 | 38906 ft | 481 kts | 64° |
| 2026-05-04 15:00 | 6.29646 | 78.08548 | 38909 ft | 481 kts | 64° |
| 2026-05-04 15:01 | 6.34199 | 78.17557 | 38909 ft | 483 kts | 64° |
| 2026-05-04 15:01 | 6.37241 | 78.23579 | 38914 ft | 484 kts | 64° |
| 2026-05-04 15:02 | 6.40296 | 78.29630 | 38910 ft | 485 kts | 65° |
| 2026-05-04 15:02 | 6.43332 | 78.35649 | 38910 ft | 487 kts | 65° |
| 2026-05-04 15:03 | 6.46395 | 78.41725 | 38911 ft | 488 kts | 65° |
| 2026-05-04 15:03 | 6.49463 | 78.47816 | 38913 ft | 489 kts | 65° |
| 2026-05-04 15:04 | 6.52149 | 78.54105 | 38915 ft | 489 kts | 70° |
| 2026-05-04 15:04 | 6.54614 | 78.60483 | 38915 ft | 490 kts | 71° |
| 2026-05-04 15:05 | 6.57053 | 78.66884 | 38913 ft | 491 kts | 71° |
| 2026-05-04 15:05 | 6.59514 | 78.73297 | 38917 ft | 491 kts | 71° |
| 2026-05-04 15:06 | 6.61987 | 78.79709 | 38920 ft | 493 kts | 70° |
| 2026-05-04 15:07 | 6.65716 | 78.89364 | 38924 ft | 495 kts | 70° |
| 2026-05-04 15:07 | 6.67789 | 78.94736 | 38923 ft | 495 kts | 70° |
| 2026-05-04 15:08 | 6.70687 | 79.02250 | 38919 ft | 496 kts | 70° |
| 2026-05-04 15:08 | 6.73184 | 79.08734 | 38913 ft | 498 kts | 70° |
| 2026-05-04 15:09 | 6.75281 | 79.14175 | 38914 ft | 498 kts | 70° |
| 2026-05-04 15:09 | 6.77768 | 79.20631 | 38911 ft | 498 kts | 70° |
| 2026-05-04 15:10 | 6.81513 | 79.30359 | 38903 ft | 497 kts | 70° |
| 2026-05-04 15:11 | 6.85249 | 79.40074 | 38900 ft | 496 kts | 70° |
| 2026-05-04 15:11 | 6.87734 | 79.46537 | 38893 ft | 495 kts | 70° |
| 2026-05-04 15:12 | 6.90218 | 79.53002 | 38898 ft | 495 kts | 70° |
| 2026-05-04 15:12 | 6.92696 | 79.59459 | 38889 ft | 494 kts | 70° |
| 2026-05-04 15:13 | 6.95167 | 79.65899 | 38881 ft | 494 kts | 70° |
| 2026-05-04 15:13 | 6.97635 | 79.72328 | 38871 ft | 494 kts | 70° |
| 2026-05-04 15:14 | 7.00114 | 79.78787 | 38864 ft | 494 kts | 70° |
| 2026-05-04 15:14 | 7.02588 | 79.85241 | 38862 ft | 494 kts | 70° |
| 2026-05-04 15:15 | 7.05060 | 79.91693 | 38860 ft | 494 kts | 70° |
| 2026-05-04 15:15 | 7.07533 | 79.98148 | 38859 ft | 494 kts | 70° |
| 2026-05-04 15:16 | 7.11227 | 80.07798 | 38870 ft | 494 kts | 70° |
| 2026-05-04 15:17 | 7.14905 | 80.17415 | 38888 ft | 495 kts | 70° |
| 2026-05-04 15:17 | 7.18654 | 80.27223 | 38907 ft | 496 kts | 70° |
| 2026-05-04 15:18 | 7.21131 | 80.33706 | 38912 ft | 496 kts | 70° |
| 2026-05-04 15:19 | 7.24849 | 80.43442 | 38915 ft | 496 kts | 70° |
| 2026-05-04 15:19 | 7.28542 | 80.53121 | 38923 ft | 496 kts | 70° |
| 2026-05-04 15:20 | 7.31012 | 80.59601 | 38919 ft | 495 kts | 70° |
| 2026-05-04 15:20 | 7.33482 | 80.66082 | 38920 ft | 495 kts | 70° |
| 2026-05-04 15:21 | 7.35950 | 80.72560 | 38927 ft | 496 kts | 70° |
| 2026-05-04 15:22 | 7.39655 | 80.82294 | 38904 ft | 496 kts | 70° |
| 2026-05-04 15:22 | 7.43352 | 80.92014 | 38911 ft | 496 kts | 70° |
| 2026-05-04 15:23 | 7.45817 | 80.98499 | 38887 ft | 496 kts | 70° |
| 2026-05-04 15:23 | 7.48268 | 81.04950 | 38889 ft | 496 kts | 70° |
| 2026-05-04 15:24 | 7.53194 | 81.17921 | 38888 ft | 496 kts | 69° |
| 2026-05-04 15:25 | 7.55656 | 81.24409 | 38878 ft | 496 kts | 70° |
| 2026-05-04 15:26 | 7.59347 | 81.34144 | 38882 ft | 495 kts | 70° |
| 2026-05-04 15:26 | 7.63031 | 81.43867 | 38882 ft | 495 kts | 70° |
| 2026-05-04 15:27 | 7.66706 | 81.53575 | 38872 ft | 494 kts | 70° |
| 2026-05-04 15:28 | 7.70382 | 81.63292 | 38878 ft | 494 kts | 70° |
| 2026-05-04 15:29 | 7.74034 | 81.72952 | 38880 ft | 493 kts | 70° |
| 2026-05-04 15:30 | 7.82554 | 81.95519 | 38887 ft | 490 kts | 70° |
| 2026-05-04 15:31 | 7.86188 | 82.05156 | 38886 ft | 489 kts | 71° |
| 2026-05-04 15:32 | 7.92233 | 82.21208 | 38886 ft | 489 kts | 71° |
| 2026-05-04 15:34 | 7.98253 | 82.37210 | 38888 ft | 490 kts | 71° |
| 2026-05-04 15:34 | 8.01876 | 82.46853 | 38890 ft | 490 kts | 71° |
| 2026-05-04 15:35 | 8.05494 | 82.56491 | 38890 ft | 490 kts | 71° |
| 2026-05-04 15:36 | 8.09114 | 82.66138 | 38892 ft | 490 kts | 71° |
| 2026-05-04 15:36 | 8.11526 | 82.72571 | 38892 ft | 490 kts | 71° |
| 2026-05-04 15:37 | 8.13936 | 82.79004 | 38890 ft | 490 kts | 71° |
| 2026-05-04 15:37 | 8.16348 | 82.85444 | 38895 ft | 490 kts | 71° |
| 2026-05-04 15:38 | 8.18738 | 82.91831 | 38894 ft | 490 kts | 71° |
| 2026-05-04 15:38 | 8.21145 | 82.98264 | 38897 ft | 490 kts | 71° |
| 2026-05-04 15:39 | 8.23556 | 83.04711 | 38893 ft | 490 kts | 71° |
| 2026-05-04 15:40 | 8.27158 | 83.14353 | 38897 ft | 489 kts | 71° |
| 2026-05-04 15:40 | 8.29560 | 83.20785 | 38899 ft | 489 kts | 71° |
| 2026-05-04 15:41 | 8.31944 | 83.27171 | 38896 ft | 489 kts | 71° |
| 2026-05-04 15:41 | 8.34344 | 83.33608 | 38903 ft | 489 kts | 71° |
| 2026-05-04 15:42 | 8.36739 | 83.40034 | 38900 ft | 489 kts | 71° |
| 2026-05-04 15:42 | 8.39134 | 83.46463 | 38902 ft | 489 kts | 71° |
| 2026-05-04 15:43 | 8.41524 | 83.52881 | 38899 ft | 489 kts | 71° |
| 2026-05-04 15:43 | 8.43919 | 83.59317 | 38896 ft | 489 kts | 71° |
| 2026-05-04 15:44 | 8.46313 | 83.65752 | 38898 ft | 489 kts | 71° |
| 2026-05-04 15:44 | 8.48706 | 83.72190 | 38903 ft | 489 kts | 71° |
| 2026-05-04 15:45 | 8.51082 | 83.78587 | 38902 ft | 490 kts | 71° |
| 2026-05-04 15:45 | 8.53477 | 83.85039 | 38896 ft | 490 kts | 71° |
| 2026-05-04 15:46 | 8.55873 | 83.91494 | 38902 ft | 491 kts | 71° |
| 2026-05-04 15:46 | 8.58271 | 83.97959 | 38896 ft | 491 kts | 71° |
| 2026-05-04 15:47 | 8.60665 | 84.04418 | 38898 ft | 491 kts | 71° |
| 2026-05-04 15:47 | 8.63062 | 84.10890 | 38891 ft | 492 kts | 71° |
| 2026-05-04 15:48 | 8.65633 | 84.17834 | 38897 ft | 492 kts | 71° |
| 2026-05-04 15:48 | 8.72790 | 84.37188 | 38893 ft | 492 kts | 71° |
| 2026-05-04 15:49 | 8.77582 | 84.50165 | 38897 ft | 493 kts | 71° |
| 2026-05-04 15:49 | 8.82371 | 84.63151 | 38897 ft | 493 kts | 71° |
| 2026-05-04 15:50 | 8.87154 | 84.76135 | 38893 ft | 493 kts | 71° |
| 2026-05-04 15:50 | 8.91772 | 84.89162 | 38893 ft | 492 kts | 72° |
| 2026-05-04 15:51 | 8.96203 | 85.02253 | 38891 ft | 492 kts | 72° |
| 2026-05-04 15:51 | 9.00685 | 85.15348 | 38894 ft | 492 kts | 72° |
| 2026-05-04 15:52 | 9.05159 | 85.28427 | 38891 ft | 492 kts | 72° |
| 2026-05-04 15:52 | 9.09623 | 85.41502 | 38893 ft | 491 kts | 72° |
| 2026-05-04 15:53 | 9.14077 | 85.54561 | 38895 ft | 491 kts | 72° |
| 2026-05-04 15:53 | 9.18523 | 85.67614 | 38896 ft | 491 kts | 72° |
| 2026-05-04 15:54 | 9.22966 | 85.80674 | 38892 ft | 490 kts | 72° |
| 2026-05-04 15:54 | 9.27406 | 85.93622 | 38895 ft | 490 kts | 71° |
| 2026-05-04 15:55 | 9.32012 | 86.06641 | 38894 ft | 491 kts | 71° |
| 2026-05-04 15:55 | 9.36595 | 86.19696 | 38894 ft | 492 kts | 71° |
| 2026-05-04 15:56 | 9.41173 | 86.32764 | 38894 ft | 492 kts | 71° |
| 2026-05-04 15:56 | 9.45745 | 86.45828 | 38896 ft | 492 kts | 71° |
| 2026-05-04 15:57 | 9.50312 | 86.58898 | 38894 ft | 492 kts | 71° |
| 2026-05-04 15:57 | 9.54874 | 86.71972 | 38895 ft | 492 kts | 71° |
| 2026-05-04 15:58 | 9.59415 | 86.85003 | 38895 ft | 494 kts | 71° |
| 2026-05-04 15:58 | 9.63993 | 86.98162 | 38895 ft | 496 kts | 72° |
| 2026-05-04 15:59 | 9.68583 | 87.11365 | 38892 ft | 497 kts | 72° |
| 2026-05-04 15:59 | 9.73170 | 87.24582 | 38894 ft | 498 kts | 71° |
| 2026-05-04 16:00 | 9.77018 | 87.35683 | 38899 ft | 499 kts | 71° |
| 2026-05-04 16:00 | 9.81887 | 87.48796 | 38899 ft | 500 kts | 70° |
| 2026-05-04 16:01 | 9.86837 | 87.61978 | 38899 ft | 500 kts | 70° |
| 2026-05-04 16:01 | 9.91749 | 87.75188 | 38896 ft | 501 kts | 70° |
| 2026-05-04 16:02 | 9.96657 | 87.88403 | 38899 ft | 500 kts | 70° |
| 2026-05-04 16:03 | 10.03995 | 88.08188 | 38898 ft | 498 kts | 70° |
| 2026-05-04 16:03 | 10.08866 | 88.21344 | 38904 ft | 496 kts | 70° |
| 2026-05-04 16:04 | 10.13711 | 88.34451 | 38906 ft | 496 kts | 70° |
| 2026-05-04 16:04 | 10.20970 | 88.54119 | 38908 ft | 497 kts | 70° |
| 2026-05-04 16:05 | 10.25797 | 88.67212 | 38903 ft | 498 kts | 70° |
| 2026-05-04 16:06 | 10.33096 | 88.87035 | 38906 ft | 501 kts | 70° |
| 2026-05-04 16:07 | 10.42870 | 89.13649 | 38905 ft | 504 kts | 70° |
| 2026-05-04 16:08 | 10.52640 | 89.40333 | 38905 ft | 503 kts | 70° |
| 2026-05-04 16:09 | 10.60433 | 89.61672 | 38903 ft | 503 kts | 70° |
| 2026-05-04 16:10 | 10.65275 | 89.74955 | 38906 ft | 503 kts | 70° |
| 2026-05-04 16:11 | 10.70130 | 89.88295 | 38905 ft | 503 kts | 70° |
| 2026-05-04 16:12 | 10.77294 | 90.08343 | 38910 ft | 503 kts | 71° |
| 2026-05-04 16:13 | 10.81863 | 90.21768 | 38909 ft | 501 kts | 71° |
| 2026-05-04 16:14 | 10.86433 | 90.35094 | 38909 ft | 500 kts | 71° |
| 2026-05-04 16:16 | 10.92143 | 90.51764 | 38910 ft | 499 kts | 71° |
| 2026-05-04 16:17 | 10.97839 | 90.68429 | 38908 ft | 499 kts | 71° |
| 2026-05-04 16:18 | 11.02388 | 90.81760 | 38910 ft | 499 kts | 71° |
| 2026-05-04 16:19 | 11.08060 | 90.98415 | 38907 ft | 499 kts | 71° |
| 2026-05-04 16:20 | 11.13745 | 91.15137 | 38909 ft | 500 kts | 71° |
| 2026-05-04 16:22 | 11.19435 | 91.31912 | 38907 ft | 502 kts | 71° |
| 2026-05-04 16:23 | 11.26250 | 91.52048 | 38913 ft | 503 kts | 71° |
| 2026-05-04 16:25 | 11.33082 | 91.72285 | 38911 ft | 504 kts | 71° |
| 2026-05-04 16:26 | 11.40656 | 91.95973 | 38908 ft | 502 kts | 73° |
| 2026-05-04 16:28 | 11.45905 | 92.12987 | 38900 ft | 502 kts | 73° |
| 2026-05-04 16:29 | 11.53231 | 92.36686 | 38890 ft | 501 kts | 73° |
| 2026-05-04 16:31 | 11.58452 | 92.53626 | 38887 ft | 501 kts | 73° |
| 2026-05-04 16:32 | 11.64739 | 92.73928 | 38883 ft | 501 kts | 70° |
| 2026-05-04 16:33 | 11.70396 | 92.86936 | 38887 ft | 502 kts | 65° |
| 2026-05-04 16:34 | 11.74782 | 92.96649 | 38899 ft | 502 kts | 65° |
| 2026-05-04 16:35 | 11.83487 | 93.16069 | 38913 ft | 503 kts | 65° |
| 2026-05-04 16:36 | 11.87845 | 93.25811 | 38912 ft | 503 kts | 65° |
| 2026-05-04 16:37 | 11.92197 | 93.35552 | 38912 ft | 503 kts | 65° |
| 2026-05-04 16:38 | 11.97996 | 93.48546 | 38911 ft | 503 kts | 65° |
| 2026-05-04 16:39 | 12.05246 | 93.64818 | 38915 ft | 503 kts | 65° |
| 2026-05-04 16:40 | 12.11020 | 93.77800 | 38908 ft | 503 kts | 65° |
| 2026-05-04 16:41 | 12.18226 | 93.94031 | 38913 ft | 500 kts | 64° |
| 2026-05-04 16:43 | 12.25427 | 94.10193 | 38913 ft | 499 kts | 64° |
| 2026-05-04 16:43 | 12.29782 | 94.19839 | 38909 ft | 499 kts | 64° |
| 2026-05-04 16:45 | 12.38491 | 94.39217 | 38911 ft | 500 kts | 64° |
| 2026-05-04 16:46 | 12.45760 | 94.55308 | 38911 ft | 500 kts | 64° |
| 2026-05-04 16:47 | 12.51605 | 94.68214 | 38913 ft | 500 kts | 64° |
| 2026-05-04 16:48 | 12.56949 | 94.80048 | 38912 ft | 500 kts | 64° |